Reform, Alabama
Current Conditions -  °F | °C
As of 4:53 PM on Sunday 21 Dec 2014 (Local Time) from KTCL Reporting Station
Overcast Overcast  
Wind Chill: 52°   Ceiling: 1400
Heat Index: 52°   Visibility: 7mi
Dew Point: 46°   Wind: 3mph
Humidity: 80%   Direction: 80°E
Pressure: 30.06"   Gusts: NA
Location:  33.38°N, 88.02°W
Report Text: KTCL 212253Z 08003KT 7SM OVC014 11/08 A3006 RMK AO2 SLP179 T01110078
Loading
Personal Weather Stations






























Interactive Weather Map New forecast layout! Learn more

10-Day Weather Forecast

Advertisements
Track Severe Weather on mobile